createdAt,value
2022-11-03T00:00:48.149Z,16.36
2022-11-03T00:02:49.947Z,16.34
2022-11-03T00:04:51.569Z,16.36
2022-11-03T00:06:54.710Z,16.34
2022-11-03T00:09:00.427Z,16.34
2022-11-03T00:11:08.468Z,16.40
2022-11-03T00:13:10.045Z,16.40
2022-11-03T00:15:11.654Z,16.35
2022-11-03T00:17:13.330Z,16.11
2022-11-03T00:19:17.436Z,15.94
2022-11-03T00:21:19.622Z,15.89
2022-11-03T00:23:21.296Z,15.81
2022-11-03T00:25:22.895Z,15.69
2022-11-03T00:27:24.457Z,15.63
2022-11-03T00:29:26.183Z,15.65
2022-11-03T00:31:32.929Z,15.74
2022-11-03T00:33:35.387Z,15.77
2022-11-03T00:35:37.020Z,15.66
2022-11-03T00:37:38.586Z,15.63
2022-11-03T00:39:40.137Z,15.66
2022-11-03T00:41:41.858Z,15.56
2022-11-03T00:43:43.660Z,15.59
2022-11-03T00:45:45.284Z,15.57
2022-11-03T00:48:05.277Z,15.46
2022-11-03T00:50:07.121Z,15.41
2022-11-03T00:52:08.663Z,15.39
2022-11-03T00:54:10.556Z,15.25
2022-11-03T00:56:14.439Z,15.24
2022-11-03T00:58:16.002Z,15.05
2022-11-03T01:00:17.726Z,14.99
2022-11-03T01:02:19.405Z,14.92
2022-11-03T01:04:39.322Z,14.83
2022-11-03T01:06:52.444Z,14.70
2022-11-03T01:08:54.543Z,14.72
2022-11-03T01:11:14.893Z,14.71
2022-11-03T01:13:16.482Z,14.60
2022-11-03T01:15:18.083Z,14.52
2022-11-03T01:17:25.489Z,14.51
2022-11-03T01:19:28.102Z,14.59
2022-11-03T01:21:29.807Z,14.63
2022-11-03T01:23:31.386Z,14.66
2022-11-03T01:25:32.973Z,14.67
2022-11-03T01:27:34.988Z,14.73
2022-11-03T01:29:36.633Z,14.84
2022-11-03T01:31:38.263Z,14.93
2022-11-03T01:33:40.471Z,15.02
2022-11-03T01:35:42.107Z,15.10
2022-11-03T01:37:44.033Z,15.21
2022-11-03T01:39:45.634Z,15.28
2022-11-03T01:41:49.310Z,15.33
2022-11-03T01:44:12.127Z,15.41
2022-11-03T01:46:18.301Z,15.43
2022-11-03T01:48:20.284Z,15.60
2022-11-03T01:50:21.964Z,15.66
2022-11-03T01:52:48.839Z,15.74
2022-11-03T01:54:57.329Z,15.70
2022-11-03T01:57:00.252Z,15.73
2022-11-03T01:59:02.144Z,15.60
2022-11-03T02:01:03.914Z,15.27
2022-11-03T02:03:06.156Z,15.17
2022-11-03T02:05:09.039Z,15.26
2022-11-03T02:07:22.770Z,15.17
2022-11-03T02:09:24.826Z,15.13
2022-11-03T02:11:45.211Z,15.21
2022-11-03T02:13:46.827Z,15.39
2022-11-03T02:15:54.217Z,15.46
2022-11-03T02:17:56.532Z,15.49
2022-11-03T02:20:01.915Z,15.57
2022-11-03T02:22:26.687Z,15.63
2022-11-03T02:24:40.297Z,15.64
2022-11-03T02:26:44.246Z,15.70
2022-11-03T02:28:45.903Z,15.73
2022-11-03T02:30:54.692Z,15.71
2022-11-03T02:33:01.540Z,15.72
2022-11-03T02:35:09.093Z,15.74
2022-11-03T02:37:16.736Z,15.69
2022-11-03T02:39:25.644Z,15.66
2022-11-03T02:41:28.680Z,15.61
2022-11-03T02:43:30.480Z,15.56
2022-11-03T02:45:32.381Z,15.59
2022-11-03T02:47:35.227Z,15.64
2022-11-03T02:49:47.848Z,15.48
2022-11-03T02:51:49.601Z,15.20
2022-11-03T02:54:16.748Z,14.87
2022-11-03T02:56:21.125Z,15.00
2022-11-03T02:58:39.773Z,14.99
2022-11-03T03:01:20.320Z,15.04
2022-11-03T03:03:29.051Z,14.85
2022-11-03T03:05:32.141Z,14.89
2022-11-03T03:07:39.136Z,14.99
2022-11-03T03:09:45.893Z,15.10
2022-11-03T03:11:49.671Z,15.21
2022-11-03T03:13:51.101Z,15.32
2022-11-03T03:16:10.707Z,15.41
2022-11-03T03:18:26.298Z,15.45
2022-11-03T03:20:39.939Z,15.37
2022-11-03T03:23:00.640Z,15.32
2022-11-03T03:25:09.277Z,15.31
2022-11-03T03:27:12.548Z,15.17
2022-11-03T03:29:46.395Z,15.04
2022-11-03T03:31:55.445Z,15.07
2022-11-03T03:34:04.463Z,15.10
2022-11-03T03:36:09.832Z,15.06
2022-11-03T03:38:18.378Z,15.12
2022-11-03T03:40:37.942Z,15.01
2022-11-03T03:42:41.068Z,14.85
2022-11-03T03:44:43.511Z,14.78
2022-11-03T03:46:49.584Z,14.83
2022-11-03T03:48:51.448Z,14.86
2022-11-03T03:50:54.093Z,14.92
2022-11-03T03:52:58.248Z,15.00
2022-11-03T03:54:59.911Z,15.08
2022-11-03T03:57:04.200Z,15.13
2022-11-03T03:59:05.811Z,15.13
2022-11-03T04:01:12.195Z,14.96
2022-11-03T04:03:19.987Z,14.85
2022-11-03T04:05:21.539Z,14.69
2022-11-03T04:07:43.595Z,14.67
2022-11-03T04:09:48.336Z,14.45
2022-11-03T04:12:08.485Z,14.25
2022-11-03T04:14:28.914Z,14.23
2022-11-03T04:16:49.373Z,14.37
2022-11-03T04:19:09.572Z,14.43
2022-11-03T04:21:32.343Z,14.55
2022-11-03T04:23:33.963Z,14.39
2022-11-03T04:25:35.585Z,14.40
2022-11-03T04:27:38.348Z,14.44
2022-11-03T04:29:40.095Z,14.49
2022-11-03T04:31:41.694Z,14.60
2022-11-03T04:33:43.994Z,14.71
2022-11-03T04:35:46.789Z,14.79
2022-11-03T04:37:56.214Z,14.87
2022-11-03T04:40:00.873Z,14.92
2022-11-03T04:42:02.504Z,14.96
2022-11-03T04:44:07.967Z,15.04
2022-11-03T04:46:11.929Z,15.11
2022-11-03T04:48:24.133Z,15.00
2022-11-03T04:50:26.211Z,14.97
2022-11-03T04:52:29.762Z,15.00
2022-11-03T04:54:31.358Z,15.04
2022-11-03T04:56:33.834Z,14.93
2022-11-03T04:58:36.214Z,14.82
2022-11-03T05:00:37.889Z,14.74
2022-11-03T05:02:39.485Z,14.72
2022-11-03T05:04:41.891Z,14.77
2022-11-03T05:06:52.731Z,14.44
2022-11-03T05:09:12.977Z,14.34
2022-11-03T05:11:22.100Z,14.23
2022-11-03T05:13:28.522Z,14.10
2022-11-03T05:15:37.340Z,14.16
2022-11-03T05:17:38.986Z,14.05
2022-11-03T05:19:42.141Z,13.98
2022-11-03T05:21:43.753Z,14.02
2022-11-03T05:23:48.926Z,14.06
2022-11-03T05:25:54.034Z,14.20
2022-11-03T05:27:56.052Z,14.24
2022-11-03T05:30:00.888Z,14.42
2022-11-03T05:32:03.234Z,14.60
2022-11-03T05:34:22.343Z,14.81
2022-11-03T05:36:26.215Z,14.83
2022-11-03T05:38:31.065Z,14.72
2022-11-03T05:40:33.693Z,14.74
2022-11-03T05:42:37.567Z,14.61
2022-11-03T05:44:40.853Z,14.48
2022-11-03T05:46:42.506Z,14.51
2022-11-03T05:48:44.973Z,14.60
2022-11-03T05:50:46.581Z,14.73
2022-11-03T05:52:49.908Z,14.76
2022-11-03T05:54:52.735Z,14.91
2022-11-03T05:56:56.205Z,15.09
2022-11-03T05:58:58.126Z,15.27
2022-11-03T06:01:01.833Z,15.41
2022-11-03T06:03:03.329Z,15.50
2022-11-03T06:05:24.515Z,15.57
2022-11-03T06:07:30.403Z,15.64
2022-11-03T06:09:33.553Z,15.73
2022-11-03T06:11:38.498Z,15.84
2022-11-03T06:13:40.142Z,15.87
2022-11-03T06:15:43.530Z,15.97
2022-11-03T06:17:45.189Z,16.03
2022-11-03T06:19:50.854Z,15.76
2022-11-03T06:21:55.106Z,15.46
2022-11-03T06:23:56.767Z,14.99
2022-11-03T06:25:59.293Z,14.83
2022-11-03T06:28:04.677Z,14.73
2022-11-03T06:30:25.842Z,14.64
2022-11-03T06:32:28.315Z,14.72
2022-11-03T06:34:38.715Z,14.79
2022-11-03T06:36:40.311Z,14.88
2022-11-03T06:38:41.938Z,14.95
2022-11-03T06:40:43.550Z,14.97
2022-11-03T06:42:45.402Z,15.01
2022-11-03T06:44:49.393Z,15.24
2022-11-03T06:46:52.197Z,15.20
2022-11-03T06:49:01.884Z,15.00
2022-11-03T06:51:04.096Z,15.09
2022-11-03T06:53:06.028Z,15.24
2022-11-03T06:55:12.081Z,15.45
2022-11-03T06:57:18.847Z,15.59
2022-11-03T06:59:20.576Z,15.69
2022-11-03T07:01:27.400Z,15.74
2022-11-03T07:03:31.394Z,15.85
2022-11-03T07:05:33.120Z,15.92
2022-11-03T07:07:34.750Z,16.11
2022-11-03T07:09:36.280Z,16.32
2022-11-03T07:11:55.746Z,16.55
2022-11-03T07:13:59.175Z,16.68
2022-11-03T07:16:00.805Z,16.84
2022-11-03T07:18:03.068Z,16.65
2022-11-03T07:20:14.239Z,16.66
2022-11-03T07:22:22.737Z,16.76
2022-11-03T07:24:27.583Z,16.86
2022-11-03T07:26:29.451Z,16.96
2022-11-03T07:28:36.703Z,17.11
2022-11-03T07:30:38.352Z,17.25
2022-11-03T07:32:40.115Z,17.38
2022-11-03T07:34:42.122Z,17.20
2022-11-03T07:36:44.196Z,17.05
2022-11-03T07:38:48.819Z,17.05
2022-11-03T07:40:51.184Z,16.87
2022-11-03T07:42:57.102Z,16.70
2022-11-03T07:44:58.972Z,16.66
2022-11-03T07:47:00.543Z,16.67
2022-11-03T07:49:03.366Z,16.48
2022-11-03T07:51:22.377Z,16.49
2022-11-03T07:53:32.736Z,16.59
2022-11-03T07:55:34.314Z,16.66
2022-11-03T07:57:35.922Z,16.70
2022-11-03T07:59:40.118Z,16.55
2022-11-03T08:01:51.381Z,16.77
2022-11-03T08:03:57.481Z,16.45
2022-11-03T08:05:59.061Z,16.32
2022-11-03T08:08:00.623Z,16.45
2022-11-03T08:10:02.295Z,16.62
2022-11-03T08:12:04.058Z,16.69
2022-11-03T08:14:05.773Z,16.91
2022-11-03T08:16:07.809Z,16.78
2022-11-03T08:18:09.413Z,16.67
2022-11-03T08:20:11.489Z,16.55
2022-11-03T08:22:13.215Z,16.54
2022-11-03T08:24:14.804Z,16.69
2022-11-03T08:26:16.417Z,16.88
2022-11-03T08:28:18.097Z,16.96
2022-11-03T08:30:19.768Z,16.99
2022-11-03T08:32:21.378Z,16.90
2022-11-03T08:34:22.943Z,17.00
2022-11-03T08:36:24.643Z,17.05
2022-11-03T08:38:26.265Z,17.11
2022-11-03T08:40:27.820Z,17.10
2022-11-03T08:42:29.467Z,17.38
2022-11-03T08:44:31.120Z,17.45
2022-11-03T08:46:32.727Z,17.67
2022-11-03T08:48:34.458Z,17.66
2022-11-03T08:50:36.019Z,17.88
2022-11-03T08:52:37.627Z,17.96
2022-11-03T08:54:39.285Z,18.21
2022-11-03T08:56:40.867Z,18.53
2022-11-03T08:58:43.978Z,18.62
2022-11-03T09:00:45.586Z,18.56
2022-11-03T09:02:47.440Z,18.07
2022-11-03T09:04:49.033Z,17.86
2022-11-03T09:06:50.683Z,17.86
2022-11-03T09:11:13.755Z,18.15
2022-11-03T09:13:15.372Z,18.52
2022-11-03T09:15:17.204Z,18.55
2022-11-03T09:17:19.043Z,18.52
2022-11-03T09:19:20.636Z,18.39
2022-11-03T09:21:22.248Z,18.25
2022-11-03T09:23:24.056Z,18.50
2022-11-03T09:25:25.695Z,18.58
2022-11-03T09:27:27.538Z,18.71
2022-11-03T09:29:36.369Z,18.77
2022-11-03T09:31:47.792Z,19.05
2022-11-03T09:33:49.377Z,18.95
2022-11-03T09:35:50.996Z,18.90
2022-11-03T09:37:52.545Z,19.14
2022-11-03T09:39:54.234Z,19.37
2022-11-03T09:41:59.157Z,19.62
2022-11-03T09:44:01.208Z,19.89
2022-11-03T09:46:03.012Z,20.15
2022-11-03T09:48:05.447Z,20.38
2022-11-03T09:50:13.106Z,20.57
2022-11-03T09:52:20.681Z,20.61
2022-11-03T09:54:22.285Z,20.74
2022-11-03T09:56:25.434Z,20.52
2022-11-03T09:58:27.196Z,20.19
2022-11-03T10:00:28.913Z,19.60
2022-11-03T10:02:32.088Z,19.59
2022-11-03T10:04:33.867Z,19.83
2022-11-03T10:06:35.468Z,20.13
2022-11-03T10:08:39.288Z,20.27
2022-11-03T10:10:41.186Z,20.43
2022-11-03T10:12:43.118Z,20.42
2022-11-03T10:14:45.826Z,20.26
2022-11-03T10:16:56.927Z,20.01
2022-11-03T10:18:58.570Z,19.91
2022-11-03T10:21:06.607Z,19.92
2022-11-03T10:23:09.157Z,19.90
2022-11-03T10:25:36.890Z,19.91
2022-11-03T10:27:38.502Z,19.98
2022-11-03T10:29:41.351Z,20.20
2022-11-03T10:31:49.742Z,20.28
2022-11-03T10:33:55.836Z,20.15
2022-11-03T10:36:01.955Z,20.11
2022-11-03T10:38:22.453Z,20.40
2022-11-03T10:40:47.834Z,20.52
2022-11-03T10:42:59.678Z,20.56
2022-11-03T10:45:15.431Z,20.77
2022-11-03T10:47:34.130Z,21.02
2022-11-03T10:49:43.354Z,21.21
2022-11-03T10:51:48.263Z,21.38
2022-11-03T10:53:49.814Z,21.51
2022-11-03T10:55:51.413Z,21.62
2022-11-03T10:57:55.830Z,21.74
2022-11-03T10:59:58.357Z,21.85
2022-11-03T11:02:01.227Z,21.88
2022-11-03T11:04:04.575Z,21.97
2022-11-03T11:06:06.329Z,22.00
2022-11-03T11:08:09.630Z,22.08
2022-11-03T11:26:27.973Z,21.16
2022-11-03T11:28:29.597Z,21.24
2022-11-03T11:30:31.161Z,21.30
2022-11-03T11:32:44.710Z,21.29
2022-11-03T11:34:46.329Z,21.13
2022-11-03T11:37:11.039Z,21.18
2022-11-03T11:39:15.370Z,21.32
2022-11-03T11:41:17.047Z,21.14
2022-11-03T11:43:25.599Z,21.04
2022-11-03T11:46:04.305Z,21.01
2022-11-03T11:48:18.979Z,21.02
2022-11-03T11:50:25.459Z,21.05
2022-11-03T11:52:27.448Z,21.10
2022-11-03T11:54:29.192Z,21.19
2022-11-03T11:56:30.844Z,21.36
2022-11-03T11:58:38.201Z,21.59
2022-11-03T12:00:57.313Z,21.54
2022-11-03T12:03:00.309Z,21.47
2022-11-03T12:05:03.802Z,21.59
2022-11-03T12:07:05.469Z,21.26
2022-11-03T12:09:13.731Z,21.16
2022-11-03T12:11:15.338Z,21.10
2022-11-03T12:13:35.279Z,21.25
2022-11-03T12:15:56.434Z,21.28
2022-11-03T12:17:58.256Z,21.35
2022-11-03T12:19:59.895Z,21.52
2022-11-03T12:22:06.191Z,21.70
2022-11-03T12:24:26.857Z,21.88
2022-11-03T12:26:28.875Z,21.90
2022-11-03T12:28:35.062Z,21.67
2022-11-03T12:30:40.017Z,21.46
2022-11-03T12:32:42.216Z,21.27
2022-11-03T12:34:44.002Z,20.98
2022-11-03T12:36:45.941Z,20.88
2022-11-03T12:38:47.570Z,21.03
2022-11-03T12:40:49.463Z,21.09
2022-11-03T12:42:51.100Z,21.07
2022-11-03T12:44:53.184Z,21.24
2022-11-03T12:46:54.767Z,21.35
2022-11-03T12:48:56.424Z,21.32
2022-11-03T12:50:58.522Z,21.31
2022-11-03T12:53:00.183Z,20.98
2022-11-03T12:55:02.063Z,20.93
2022-11-03T12:57:03.851Z,20.96
2022-11-03T12:59:05.517Z,21.11
2022-11-03T13:01:07.323Z,21.21
2022-11-03T13:03:09.251Z,21.27
2022-11-03T13:05:15.544Z,21.22
2022-11-03T13:07:20.635Z,21.19
2022-11-03T13:09:30.632Z,21.07
2022-11-03T13:11:51.408Z,21.16
2022-11-03T13:13:53.284Z,21.34
2022-11-03T13:15:55.171Z,21.36
2022-11-03T13:18:14.101Z,21.44
2022-11-03T13:20:16.295Z,21.41
2022-11-03T13:22:18.202Z,21.48
2022-11-03T13:24:20.338Z,21.45
2022-11-03T13:26:22.059Z,21.32
2022-11-03T13:28:23.742Z,21.38
2022-11-03T13:30:26.756Z,21.41
2022-11-03T13:32:28.858Z,21.45
2022-11-03T13:34:31.085Z,21.51
2022-11-03T13:36:42.093Z,21.56
2022-11-03T13:38:43.968Z,21.58
2022-11-03T13:41:06.973Z,21.60
2022-11-03T13:43:07.650Z,21.64
2022-11-03T13:45:10.381Z,21.63
2022-11-03T13:47:12.350Z,21.67
2022-11-03T13:50:07.936Z,21.71
2022-11-03T13:51:35.660Z,21.73
2022-11-03T13:56:05.220Z,21.58
2022-11-03T14:00:32.525Z,21.49
2022-11-03T14:04:55.796Z,21.45
2022-11-03T14:06:57.697Z,21.48
2022-11-03T14:08:59.584Z,21.54
2022-11-03T14:11:21.201Z,21.57
2022-11-03T14:13:22.842Z,21.61
2022-11-03T14:15:24.487Z,21.63
2022-11-03T14:17:26.314Z,21.64
2022-11-03T14:19:36.459Z,21.64
2022-11-03T14:21:40.773Z,21.60
2022-11-03T14:23:42.370Z,21.57
2022-11-03T14:25:44.001Z,21.58
2022-11-03T14:27:45.942Z,21.56
2022-11-03T14:29:50.937Z,21.54
2022-11-03T14:31:52.702Z,21.50
2022-11-03T14:33:54.363Z,21.46
2022-11-03T14:35:55.957Z,21.40
2022-11-03T14:37:57.631Z,21.33
2022-11-03T14:39:59.241Z,21.26
2022-11-03T14:42:03.872Z,21.19
2022-11-03T14:44:06.371Z,21.10
2022-11-03T14:46:08.052Z,21.04
2022-11-03T14:48:09.976Z,20.96
2022-11-03T14:50:11.835Z,20.89
2022-11-03T14:52:14.468Z,20.82
2022-11-03T14:54:16.134Z,20.76
2022-11-03T14:56:17.825Z,20.69
2022-11-03T14:58:19.492Z,20.64
2022-11-03T15:00:21.605Z,20.57
2022-11-03T15:02:23.342Z,20.50
2022-11-03T15:04:25.062Z,20.43
2022-11-03T15:06:26.681Z,20.35
2022-11-03T15:08:29.949Z,20.29
2022-11-03T15:10:31.589Z,20.24
2022-11-03T15:12:33.176Z,20.18
2022-11-03T15:14:35.040Z,20.12
2022-11-03T15:16:36.959Z,20.05
2022-11-03T15:18:38.639Z,19.98
2022-11-03T15:20:40.460Z,19.93
2022-11-03T15:27:12.866Z,19.76
2022-11-03T15:29:14.482Z,19.69
2022-11-03T15:31:16.178Z,19.62
2022-11-03T15:33:17.942Z,19.55
2022-11-03T15:35:19.686Z,19.49
2022-11-03T15:37:21.371Z,19.42
2022-11-03T15:39:23.072Z,19.37
2022-11-03T15:41:24.893Z,19.29
2022-11-03T15:43:26.493Z,19.27
2022-11-03T15:45:28.145Z,19.24
2022-11-03T15:47:30.038Z,19.18
2022-11-03T15:49:31.675Z,19.14
2022-11-03T15:51:33.286Z,19.12
2022-11-03T15:53:34.926Z,19.08
2022-11-03T15:55:36.524Z,19.05
2022-11-03T15:57:38.153Z,19.01
2022-11-03T15:59:40.264Z,19.00
2022-11-03T16:01:42.565Z,18.98
2022-11-03T16:03:44.261Z,18.97
2022-11-03T16:05:45.877Z,18.96
2022-11-03T16:07:47.587Z,18.96
2022-11-03T16:09:49.740Z,18.86
2022-11-03T16:11:51.551Z,18.44
2022-11-03T16:13:53.214Z,18.29
2022-11-03T16:15:54.885Z,18.10
2022-11-03T16:18:02.802Z,17.93
2022-11-03T16:20:05.038Z,17.95
2022-11-03T16:22:06.626Z,18.01
2022-11-03T16:24:08.614Z,18.03
2022-11-03T16:26:10.425Z,18.04
2022-11-03T16:28:12.182Z,18.01
2022-11-03T16:30:14.224Z,17.95
2022-11-03T16:32:15.791Z,17.94
2022-11-03T16:34:36.407Z,17.91
2022-11-03T16:36:38.073Z,17.86
2022-11-03T16:38:39.796Z,17.87
2022-11-03T16:40:42.459Z,17.89
2022-11-03T16:42:44.319Z,17.86
2022-11-03T16:44:45.973Z,17.80
2022-11-03T16:46:47.568Z,17.84
2022-11-03T16:48:49.297Z,17.89
2022-11-03T16:50:54.221Z,17.96
2022-11-03T16:52:58.386Z,18.04
2022-11-03T16:55:00.176Z,18.11
2022-11-03T16:57:01.892Z,18.15
2022-11-03T16:59:03.499Z,18.15
2022-11-03T17:01:05.548Z,18.18
2022-11-03T17:03:07.542Z,18.20
2022-11-03T17:05:10.887Z,18.21
2022-11-03T17:07:12.686Z,18.20
2022-11-03T17:09:14.315Z,18.19
2022-11-03T17:11:15.928Z,18.20
2022-11-03T17:13:17.529Z,18.20
2022-11-03T17:15:19.133Z,18.18
2022-11-03T17:17:20.759Z,18.16
2022-11-03T17:19:22.524Z,18.08
2022-11-03T17:21:25.582Z,17.95
2022-11-03T17:23:27.191Z,17.77
2022-11-03T17:25:29.037Z,17.51
2022-11-03T17:27:50.002Z,17.40
2022-11-03T17:29:58.010Z,17.24
2022-11-03T17:31:59.975Z,17.13
2022-11-03T17:34:01.599Z,17.14
2022-11-03T17:36:03.224Z,17.16
2022-11-03T17:38:08.659Z,17.22
2022-11-03T17:40:16.700Z,17.31
2022-11-03T17:42:24.852Z,17.40
2022-11-03T17:44:26.496Z,17.43
2022-11-03T17:46:28.073Z,17.45
2022-11-03T17:48:29.652Z,17.46
2022-11-03T17:50:31.530Z,17.46
2022-11-03T17:52:33.395Z,17.39
2022-11-03T17:54:35.050Z,17.20
2022-11-03T17:56:36.652Z,17.13
2022-11-03T17:58:44.888Z,17.04
2022-11-03T18:00:48.144Z,17.06
2022-11-03T18:02:50.777Z,17.11
2022-11-03T18:05:15.450Z,17.12
2022-11-03T18:07:23.392Z,17.12
2022-11-03T18:09:25.006Z,16.93
2022-11-03T18:11:47.519Z,16.90
2022-11-03T18:13:50.293Z,16.88
2022-11-03T18:16:27.082Z,16.80
2022-11-03T18:18:34.645Z,16.83
2022-11-03T18:20:36.625Z,16.88
2022-11-03T18:22:38.268Z,16.91
2022-11-03T18:24:39.855Z,16.86
2022-11-03T18:26:41.919Z,16.73
2022-11-03T18:28:43.743Z,16.72
2022-11-03T18:30:46.503Z,16.72
2022-11-03T18:32:49.048Z,16.78
2022-11-03T18:34:50.676Z,16.83
2022-11-03T18:36:52.801Z,16.90
2022-11-03T18:38:56.797Z,16.92
2022-11-03T18:40:58.245Z,16.94
2022-11-03T18:42:59.893Z,16.93
2022-11-03T18:45:03.072Z,16.93
2022-11-03T18:47:06.054Z,16.94
2022-11-03T18:49:07.767Z,16.97
2022-11-03T18:51:09.613Z,16.98
2022-11-03T18:53:13.683Z,16.98
2022-11-03T18:55:16.318Z,16.97
2022-11-03T18:57:21.977Z,16.96
2022-11-03T18:59:25.831Z,16.96
2022-11-03T19:01:27.917Z,16.91
2022-11-03T19:03:29.621Z,16.89
2022-11-03T19:05:33.618Z,16.87
2022-11-03T19:07:35.975Z,16.85
2022-11-03T19:09:37.821Z,16.83
2022-11-03T19:11:39.841Z,16.76
2022-11-03T19:13:44.447Z,16.68
2022-11-03T19:15:48.040Z,16.66
2022-11-03T19:17:52.212Z,16.66
2022-11-03T19:19:54.231Z,16.66
2022-11-03T19:21:55.891Z,16.58
2022-11-03T19:23:59.689Z,16.45
2022-11-03T19:26:01.534Z,16.32
2022-11-03T19:28:03.188Z,16.16
2022-11-03T19:30:05.893Z,16.03
2022-11-03T19:32:16.477Z,15.86
2022-11-03T19:34:23.673Z,15.72
2022-11-03T19:36:25.476Z,15.68
2022-11-03T19:38:27.129Z,15.72
2022-11-03T19:40:28.902Z,15.69
2022-11-03T19:42:37.018Z,15.64
2022-11-03T19:44:38.928Z,15.67
2022-11-03T19:46:42.059Z,15.76
2022-11-03T19:48:44.096Z,15.83
2022-11-03T19:50:46.153Z,15.88
2022-11-03T19:52:50.989Z,15.84
2022-11-03T19:54:53.403Z,15.84
2022-11-03T19:56:55.067Z,15.85
2022-11-03T19:58:56.856Z,15.85
2022-11-03T20:00:59.443Z,15.84
2022-11-03T20:03:03.373Z,15.84
2022-11-03T20:05:05.233Z,15.82
2022-11-03T20:07:07.461Z,15.85
2022-11-03T20:09:15.557Z,15.87
2022-11-03T20:11:17.261Z,15.88
2022-11-03T20:13:23.734Z,15.86
2022-11-03T20:15:25.493Z,15.89
2022-11-03T20:17:27.342Z,15.90
2022-11-03T20:19:28.939Z,15.90
2022-11-03T20:21:34.496Z,15.94
2022-11-03T20:23:39.251Z,15.96
2022-11-03T20:25:40.861Z,15.99
2022-11-03T20:27:42.462Z,15.99
2022-11-03T20:29:44.107Z,16.00
2022-11-03T20:31:45.846Z,15.97
2022-11-03T20:33:47.783Z,15.94
2022-11-03T20:35:51.503Z,15.72
2022-11-03T20:37:55.114Z,15.21
2022-11-03T20:39:56.668Z,14.73
2022-11-03T20:41:58.423Z,14.49
2022-11-03T20:44:00.020Z,14.33
2022-11-03T20:46:01.917Z,14.23
2022-11-03T20:48:03.645Z,14.22
2022-11-03T20:50:05.490Z,14.25
2022-11-03T20:52:12.975Z,14.42
2022-11-03T20:54:20.189Z,14.60
2022-11-03T20:56:24.488Z,14.76
2022-11-03T20:58:26.091Z,14.89
2022-11-03T21:00:28.362Z,14.99
2022-11-03T21:02:30.075Z,15.07
2022-11-03T21:04:31.800Z,15.10
2022-11-03T21:06:33.394Z,15.14
2022-11-03T21:08:34.963Z,15.19
2022-11-03T21:10:36.538Z,15.20
2022-11-03T21:12:38.747Z,15.22
2022-11-03T21:15:01.718Z,15.24
2022-11-03T21:17:21.704Z,15.25
2022-11-03T21:19:42.225Z,15.25
2022-11-03T21:21:43.881Z,15.25
2022-11-03T21:23:45.468Z,15.23
2022-11-03T21:25:48.042Z,15.22
2022-11-03T21:27:49.848Z,15.24
2022-11-03T21:29:59.437Z,15.23
2022-11-03T21:32:01.493Z,15.25
2022-11-03T21:34:03.131Z,15.25
2022-11-03T21:36:05.004Z,15.27
2022-11-03T21:38:06.977Z,15.26
2022-11-03T21:40:10.504Z,15.27
2022-11-03T21:42:32.548Z,15.21
2022-11-03T21:44:34.909Z,15.11
2022-11-03T21:46:38.658Z,15.04
2022-11-03T21:48:58.908Z,14.96
2022-11-03T21:51:02.746Z,14.91
2022-11-03T21:53:04.207Z,14.75
2022-11-03T21:55:06.002Z,14.63
2022-11-03T21:57:09.355Z,14.48
2022-11-03T21:59:10.937Z,14.45
2022-11-03T22:01:12.659Z,14.51
2022-11-03T22:03:14.367Z,14.56
2022-11-03T22:05:16.024Z,14.65
2022-11-03T22:07:17.577Z,14.73
2022-11-03T22:09:19.239Z,14.79
2022-11-03T22:11:23.502Z,14.87
2022-11-03T22:13:25.067Z,14.87
2022-11-03T22:15:45.368Z,14.90
2022-11-03T22:17:46.921Z,14.89
2022-11-03T22:20:07.295Z,14.86
2022-11-03T22:22:33.124Z,14.82
2022-11-03T22:24:53.406Z,14.80
2022-11-03T22:26:59.920Z,14.81
2022-11-03T22:29:20.224Z,14.74
2022-11-03T22:31:40.533Z,14.69
2022-11-03T22:34:01.092Z,14.73
2022-11-03T22:36:22.078Z,14.73
2022-11-03T22:38:43.680Z,14.72
2022-11-03T22:41:06.747Z,14.71
2022-11-03T22:43:27.875Z,14.71
2022-11-03T22:45:48.170Z,14.70
2022-11-03T22:47:57.692Z,14.68
2022-11-03T22:49:59.458Z,14.69
2022-11-03T22:52:01.106Z,14.69
2022-11-03T22:54:11.987Z,14.71
2022-11-03T22:56:13.801Z,14.71
2022-11-03T22:58:15.476Z,14.71
2022-11-03T23:00:20.501Z,14.69
2022-11-03T23:02:22.148Z,14.64
2022-11-03T23:04:24.144Z,14.38
2022-11-03T23:06:27.925Z,14.04
2022-11-03T23:08:29.923Z,13.80
2022-11-03T23:10:31.804Z,13.73
2022-11-03T23:12:33.422Z,13.76
2022-11-03T23:14:58.176Z,13.83
2022-11-03T23:16:59.733Z,13.87
2022-11-03T23:19:20.284Z,13.93
2022-11-03T23:21:21.949Z,14.02
2022-11-03T23:23:42.003Z,14.06
2022-11-03T23:25:43.611Z,14.11
2022-11-03T23:27:45.319Z,14.11
2022-11-03T23:29:46.870Z,14.06
2022-11-03T23:31:50.048Z,14.05
2022-11-03T23:33:51.699Z,14.03
2022-11-03T23:35:53.545Z,14.04
2022-11-03T23:37:55.323Z,14.04
2022-11-03T23:39:56.955Z,14.06
2022-11-03T23:41:58.569Z,14.10
2022-11-03T23:44:00.157Z,14.13
2022-11-03T23:46:20.288Z,14.09
2022-11-03T23:48:40.756Z,14.05
2022-11-03T23:50:43.572Z,14.06
2022-11-03T23:52:45.167Z,14.02
2022-11-03T23:54:46.768Z,14.04
2022-11-03T23:57:07.349Z,13.96
2022-11-03T23:59:09.495Z,13.96
